KLOR/LOR METAR and TAF weather

Enter ICAO airport designator
Station Type Date Time Source
KLOR METAR 2019/10/23 06:58 UTC NOAA

KLOR 230658Z AUTO 33004KT 4SM HZ CLR 10/06 A3012 RMK AO2 SLP182 T01030064


Station Type Date Time Source
KLOR Decoded METAR 2019/10/23 06:58 UTC NOAA

Fort Rucker, Lowe Army Heliport, AL, United States (KLOR) 31-21-32N 085-44-54W 93M
Oct 23, 2019 - 02:58 AM EDT / 2019.10.23 0658 UTC
Wind: from the NNW (330 degrees) at 5 MPH (4 KT):0
Visibility: 4 mile(s):0
Sky conditions: clear
Weather: haze
Temperature: 50.5 F (10.3 C)
Dew Point: 43.5 F (6.4 C)
Relative Humidity: 76%
Pressure (altimeter): 30.12 in. Hg (1019 hPa)
ob: KLOR 230658Z AUTO 33004KT 4SM HZ CLR 10/06 A3012 RMK AO2 SLP182 T01030064
cycle: 7

Station Type Date Time Source
KLOR TAF UTC NOAA

Error!

Example: see airport list